createdAt,value
2018-02-13T00:00:01.682Z,9.40
2018-02-13T00:05:09.607Z,7.10
2018-02-13T00:10:12.633Z,6.82
2018-02-13T00:15:15.640Z,5.60
2018-02-13T00:20:19.350Z,6.43
2018-02-13T00:25:23.224Z,7.60
2018-02-13T00:30:26.475Z,7.05
2018-02-13T00:35:29.664Z,8.80
2018-02-13T00:40:33.333Z,9.98
2018-02-13T00:45:37.101Z,9.85
2018-02-13T00:50:40.740Z,9.00
2018-02-13T00:55:46.091Z,9.73
2018-02-13T01:00:54.737Z,7.43
2018-02-13T01:05:57.733Z,9.52
2018-02-13T01:11:00.622Z,9.35
2018-02-13T01:16:04.373Z,8.55
2018-02-13T01:21:08.146Z,7.50
2018-02-13T01:26:12.216Z,7.25
2018-02-13T01:31:18.629Z,9.10
2018-02-13T01:36:23.774Z,8.32
2018-02-13T01:41:27.674Z,10.17
2018-02-13T01:46:30.577Z,10.13
2018-02-13T01:51:33.570Z,12.07
2018-02-13T01:56:37.873Z,8.00
2018-02-13T02:01:41.404Z,7.10
2018-02-13T02:06:44.312Z,6.70
2018-02-13T02:11:48.123Z,7.32
2018-02-13T02:16:52.314Z,8.30
2018-02-13T02:21:55.581Z,7.55
2018-02-13T02:26:58.711Z,5.70
2018-02-13T02:32:02.689Z,6.28
2018-02-13T02:37:05.865Z,6.57
2018-02-13T02:42:09.899Z,8.02
2018-02-13T02:47:12.900Z,5.93
2018-02-13T02:52:17.874Z,8.77
2018-02-13T02:57:21.147Z,6.78
2018-02-13T03:02:24.840Z,7.50
2018-02-13T03:07:27.859Z,6.70
2018-02-13T03:12:31.646Z,8.03
2018-02-13T03:17:34.574Z,9.32
2018-02-13T03:22:37.613Z,8.50
2018-02-13T03:27:40.855Z,5.82
2018-02-13T03:32:45.277Z,9.25
2018-02-13T03:37:49.239Z,7.57
2018-02-13T03:42:53.216Z,7.27
2018-02-13T03:47:56.587Z,7.32
2018-02-13T03:52:59.857Z,6.80
2018-02-13T03:58:03.703Z,6.68
2018-02-13T04:03:09.013Z,6.80
2018-02-13T04:08:13.131Z,6.47
2018-02-13T04:13:30.209Z,6.12
2018-02-13T04:18:35.423Z,5.80
2018-02-13T04:23:38.606Z,6.65
2018-02-13T04:28:42.393Z,8.15
2018-02-13T04:33:53.836Z,7.57
2018-02-13T04:39:00.890Z,10.37
2018-02-13T04:44:14.273Z,8.10
2018-02-13T04:49:17.478Z,9.40
2018-02-13T04:54:20.381Z,8.35
2018-02-13T04:59:24.967Z,9.20
2018-02-13T05:04:29.021Z,7.65
2018-02-13T05:09:32.773Z,6.80
2018-02-13T05:14:35.880Z,7.50
2018-02-13T05:19:38.841Z,10.40
2018-02-13T05:24:43.552Z,8.23
2018-02-13T05:29:49.512Z,8.48
2018-02-13T05:35:03.088Z,10.05
2018-02-13T05:40:07.024Z,9.18
2018-02-13T05:45:12.473Z,8.00
2018-02-13T05:50:18.346Z,9.60
2018-02-13T05:55:22.000Z,10.40
2018-02-13T06:00:24.920Z,10.85
2018-02-13T06:05:28.070Z,22.52
2018-02-13T06:10:32.238Z,25.98
2018-02-13T06:15:36.001Z,9.55
2018-02-13T06:20:41.493Z,9.77
2018-02-13T06:25:44.645Z,13.90
2018-02-13T06:30:47.601Z,9.87
2018-02-13T06:35:50.401Z,11.87
2018-02-13T06:40:53.672Z,12.80
2018-02-13T06:45:57.485Z,13.70
2018-02-13T06:51:00.484Z,13.48
2018-02-13T06:56:03.325Z,13.30
2018-02-13T07:01:06.902Z,13.00
2018-02-13T07:06:09.738Z,10.90
2018-02-13T07:11:13.348Z,11.25
2018-02-13T07:16:16.203Z,11.63
2018-02-13T07:21:19.922Z,11.90
2018-02-13T07:26:23.623Z,10.57
2018-02-13T07:31:26.649Z,12.27
2018-02-13T07:36:30.127Z,9.45
2018-02-13T07:41:33.119Z,11.65
2018-02-13T07:46:36.038Z,13.20
2018-02-13T07:51:40.501Z,12.60
2018-02-13T07:56:44.137Z,11.10
2018-02-13T08:01:47.429Z,8.18
2018-02-13T08:06:51.199Z,8.73
2018-02-13T08:11:54.929Z,9.10
2018-02-13T08:16:58.827Z,9.88
2018-02-13T08:22:01.714Z,10.80
2018-02-13T08:27:04.642Z,9.63
2018-02-13T08:32:07.506Z,7.10
2018-02-13T08:37:11.123Z,7.18
2018-02-13T08:42:15.364Z,7.43
2018-02-13T08:52:57.251Z,9.88
2018-02-13T08:58:00.297Z,11.25
2018-02-13T09:03:04.189Z,9.95
2018-02-13T09:08:08.455Z,8.07
2018-02-13T09:13:13.389Z,7.25
2018-02-13T09:18:17.495Z,10.93
2018-02-13T09:23:20.502Z,13.80
2018-02-13T09:34:14.386Z,8.02
2018-02-13T09:39:17.477Z,9.18
2018-02-13T09:44:20.730Z,11.50
2018-02-13T09:49:32.092Z,7.40
2018-02-13T09:54:36.597Z,8.50
2018-02-13T09:59:39.545Z,10.20
2018-02-13T10:11:01.022Z,7.25
2018-02-13T11:19:38.193Z,7.45
2018-02-13T11:24:43.056Z,7.40
2018-02-13T11:29:46.175Z,8.15
2018-02-13T11:34:50.677Z,6.10
2018-02-13T11:50:55.195Z,4.60
2018-02-13T11:55:59.135Z,7.85
2018-02-13T12:06:17.926Z,6.40
2018-02-13T12:11:21.851Z,3.63
2018-02-13T12:16:38.112Z,4.65
2018-02-13T12:31:24.310Z,5.40
2018-02-13T12:41:52.279Z,4.80
2018-02-13T12:46:55.276Z,4.05
2018-02-13T12:52:02.983Z,3.85
2018-02-13T12:57:07.940Z,5.10
2018-02-13T13:02:28.430Z,6.10
2018-02-13T13:07:31.555Z,4.53
2018-02-13T13:18:31.295Z,5.37
2018-02-13T13:24:02.570Z,4.47
2018-02-13T15:22:00.151Z,4.70
2018-02-13T15:32:50.339Z,4.07
2018-02-13T15:37:54.564Z,4.20
2018-02-13T15:42:57.618Z,6.85
2018-02-13T15:48:06.229Z,4.10
2018-02-13T15:59:11.617Z,6.12
2018-02-13T16:10:23.254Z,6.30
2018-02-13T16:15:26.900Z,5.90
2018-02-13T16:20:36.279Z,6.90
2018-02-13T16:25:42.078Z,6.37
2018-02-13T16:30:47.142Z,3.55
2018-02-13T16:41:24.003Z,5.57
2018-02-13T16:57:12.745Z,17.20
2018-02-13T17:02:17.639Z,21.10
2018-02-13T17:07:25.592Z,10.05
2018-02-13T17:12:28.666Z,5.37
2018-02-13T17:17:32.818Z,6.70
2018-02-13T17:27:54.613Z,6.15
2018-02-13T17:32:59.241Z,5.50
2018-02-13T17:38:02.913Z,3.40
2018-02-13T17:43:13.346Z,10.43
2018-02-13T17:48:18.449Z,7.72
2018-02-13T17:53:22.906Z,10.80
2018-02-13T17:58:32.185Z,5.90
2018-02-13T18:03:38.572Z,5.75
2018-02-13T18:08:46.236Z,5.50
2018-02-13T18:13:52.817Z,6.87
2018-02-13T18:18:55.965Z,6.43
2018-02-13T18:24:02.767Z,6.07
2018-02-13T18:29:05.761Z,7.60
2018-02-13T18:34:09.571Z,9.35
2018-02-13T18:39:25.495Z,12.70
2018-02-13T18:44:38.833Z,19.90
2018-02-13T18:49:41.851Z,16.58
2018-02-13T18:54:44.796Z,12.50
2018-02-13T18:59:47.699Z,15.67
2018-02-13T19:04:52.797Z,16.48
2018-02-13T19:09:59.046Z,30.30
2018-02-13T19:15:03.996Z,30.23
2018-02-13T19:20:11.089Z,18.42
2018-02-13T19:25:15.571Z,14.00
2018-02-13T19:30:23.290Z,9.73
2018-02-13T19:35:29.468Z,11.32
2018-02-13T19:40:39.943Z,11.90
2018-02-13T19:46:04.998Z,10.55
2018-02-13T19:51:08.390Z,9.20
2018-02-13T19:56:29.154Z,14.27
2018-02-13T20:01:39.006Z,16.30
2018-02-13T20:06:45.087Z,16.20
2018-02-13T20:17:12.393Z,16.50
2018-02-13T20:22:20.530Z,13.85
2018-02-13T20:27:32.697Z,13.07
2018-02-13T20:33:25.224Z,14.40
2018-02-13T21:12:47.501Z,14.25
2018-02-13T22:21:59.718Z,11.23
2018-02-13T22:27:11.432Z,12.80
2018-02-13T22:38:00.854Z,11.88
2018-02-13T22:43:04.071Z,12.57
2018-02-13T22:48:07.722Z,10.38
2018-02-13T22:53:20.598Z,8.57
2018-02-13T22:58:23.708Z,9.50
2018-02-13T23:03:26.960Z,8.30
2018-02-13T23:08:30.088Z,8.00
2018-02-13T23:13:32.976Z,8.63
2018-02-13T23:18:36.103Z,7.00
2018-02-13T23:29:10.072Z,7.40
2018-02-13T23:39:54.701Z,9.32
2018-02-13T23:45:07.520Z,8.55
2018-02-13T23:50:13.763Z,12.18
2018-02-13T23:55:29.951Z,9.45
